createdAt,value
2023-03-05T00:01:41.580Z,9.40
2023-03-05T00:04:14.639Z,8.80
2023-03-05T00:06:42.830Z,9.90
2023-03-05T00:09:12.938Z,9.83
2023-03-05T00:11:41.227Z,8.60
2023-03-05T00:14:09.312Z,9.17
2023-03-05T00:16:37.546Z,9.47
2023-03-05T00:19:05.860Z,9.63
2023-03-05T00:21:37.668Z,9.37
2023-03-05T00:24:09.508Z,8.40
2023-03-05T00:26:40.687Z,10.03
2023-03-05T00:29:10.920Z,9.60
2023-03-05T00:31:39.702Z,10.13
2023-03-05T00:34:13.528Z,9.60
2023-03-05T00:36:42.768Z,9.30
2023-03-05T00:39:10.836Z,10.53
2023-03-05T00:41:40.461Z,9.63
2023-03-05T00:44:08.742Z,8.83
2023-03-05T00:46:37.628Z,10.13
2023-03-05T00:49:06.002Z,9.53
2023-03-05T00:51:34.198Z,9.10
2023-03-05T00:54:03.579Z,9.53
2023-03-05T00:56:31.689Z,8.60
2023-03-05T00:59:01.072Z,9.47
2023-03-05T01:01:29.460Z,8.20
2023-03-05T01:03:59.576Z,9.43
2023-03-05T01:06:28.204Z,9.37
2023-03-05T01:08:57.266Z,7.80
2023-03-05T01:11:25.366Z,8.90
2023-03-05T01:13:53.378Z,7.93
2023-03-05T01:16:23.108Z,6.93
2023-03-05T01:18:51.247Z,6.30
2023-03-05T01:21:19.280Z,6.03
2023-03-05T01:23:47.328Z,5.07
2023-03-05T01:26:15.356Z,5.47
2023-03-05T01:28:43.409Z,5.90
2023-03-05T01:31:12.440Z,5.43
2023-03-05T01:33:41.816Z,5.87
2023-03-05T01:36:13.497Z,6.80
2023-03-05T01:38:41.931Z,6.40
2023-03-05T01:41:10.999Z,5.63
2023-03-05T01:43:40.034Z,5.43
2023-03-05T01:46:28.904Z,6.10
2023-03-05T01:49:09.426Z,5.10
2023-03-05T01:51:43.751Z,5.97
2023-03-05T01:54:15.593Z,5.60
2023-03-05T01:56:44.976Z,5.73
2023-03-05T01:59:14.830Z,5.40
2023-03-05T02:01:49.086Z,5.47
2023-03-05T02:04:20.396Z,5.73
2023-03-05T02:06:49.778Z,5.63
2023-03-05T02:09:18.360Z,5.57
2023-03-05T02:11:46.838Z,5.20
2023-03-05T02:14:15.036Z,6.27
2023-03-05T02:16:44.238Z,4.80
2023-03-05T02:19:13.979Z,5.50
2023-03-05T02:21:46.055Z,4.27
2023-03-05T02:24:15.300Z,5.70
2023-03-05T02:26:44.804Z,4.90
2023-03-05T02:29:19.354Z,5.30
2023-03-05T02:31:47.755Z,5.30
2023-03-05T02:34:16.148Z,4.60
2023-03-05T02:36:46.712Z,5.37
2023-03-05T02:39:14.999Z,5.37
2023-03-05T02:41:43.741Z,5.90
2023-03-05T02:44:12.379Z,5.43
2023-03-05T02:46:40.389Z,4.53
2023-03-05T02:49:09.178Z,4.90
2023-03-05T02:51:37.550Z,5.23
2023-03-05T02:54:07.173Z,5.73
2023-03-05T02:56:35.377Z,5.37
2023-03-05T02:59:03.446Z,4.13
2023-03-05T03:01:31.591Z,5.37
2023-03-05T03:04:00.156Z,4.87
2023-03-05T03:06:28.219Z,5.47
2023-03-05T03:08:56.271Z,4.90
2023-03-05T03:11:25.786Z,4.60
2023-03-05T03:13:53.808Z,4.30
2023-03-05T03:16:21.884Z,4.80
2023-03-05T03:18:50.011Z,5.40
2023-03-05T03:21:21.066Z,5.43
2023-03-05T03:23:49.411Z,5.13
2023-03-05T03:26:17.793Z,5.13
2023-03-05T03:28:47.331Z,5.50
2023-03-05T03:31:15.803Z,5.10
2023-03-05T03:33:45.217Z,4.80
2023-03-05T03:36:15.445Z,5.03
2023-03-05T03:38:43.757Z,4.63
2023-03-05T03:41:11.820Z,5.60
2023-03-05T03:43:39.976Z,4.90
2023-03-05T03:46:10.223Z,5.53
2023-03-05T03:48:38.522Z,5.63
2023-03-05T03:51:08.557Z,5.67
2023-03-05T03:53:36.674Z,5.53
2023-03-05T03:56:05.536Z,4.70
2023-03-05T03:58:33.813Z,5.43
2023-03-05T04:01:02.086Z,5.50
2023-03-05T04:03:31.437Z,4.27
2023-03-05T04:05:59.503Z,5.37
2023-03-05T04:08:27.943Z,4.63
2023-03-05T04:10:56.039Z,5.50
2023-03-05T04:13:24.108Z,4.60
2023-03-05T04:15:52.451Z,5.67
2023-03-05T04:18:20.536Z,4.97
2023-03-05T04:20:50.073Z,4.63
2023-03-05T04:23:18.700Z,5.07
2023-03-05T04:25:46.984Z,4.43
2023-03-05T04:28:15.200Z,4.67
2023-03-05T04:30:43.630Z,5.27
2023-03-05T04:33:11.936Z,5.20
2023-03-05T04:35:40.068Z,5.30
2023-03-05T04:38:10.320Z,5.97
2023-03-05T04:40:38.586Z,5.00
2023-03-05T04:43:07.342Z,5.67
2023-03-05T04:45:37.143Z,4.97
2023-03-05T04:48:05.770Z,5.40
2023-03-05T04:50:34.108Z,5.10
2023-03-05T04:53:02.644Z,4.93
2023-03-05T04:55:32.049Z,5.50
2023-03-05T04:58:00.196Z,5.13
2023-03-05T05:00:28.297Z,5.07
2023-03-05T05:02:56.417Z,5.33
2023-03-05T05:05:29.369Z,5.83
2023-03-05T05:07:58.952Z,6.00
2023-03-05T05:10:27.815Z,4.97
2023-03-05T05:12:59.241Z,5.30
2023-03-05T05:15:28.490Z,5.43
2023-03-05T05:17:56.490Z,6.13
2023-03-05T05:20:24.549Z,5.90
2023-03-05T05:22:52.677Z,5.83
2023-03-05T05:25:20.776Z,6.13
2023-03-05T05:27:49.010Z,5.90
2023-03-05T05:30:42.565Z,5.93
2023-03-05T05:33:10.576Z,5.07
2023-03-05T05:35:41.102Z,5.43
2023-03-05T05:38:09.181Z,6.03
2023-03-05T05:41:02.006Z,5.80
2023-03-05T05:43:30.030Z,4.97
2023-03-05T05:46:02.073Z,6.03
2023-03-05T05:48:31.188Z,6.10
2023-03-05T05:50:59.552Z,5.93
2023-03-05T05:53:28.053Z,5.70
2023-03-05T05:55:56.143Z,5.30
2023-03-05T05:58:24.241Z,6.07
2023-03-05T06:00:52.433Z,5.80
2023-03-05T06:03:22.072Z,5.40
2023-03-05T06:05:51.750Z,5.90
2023-03-05T06:08:20.193Z,5.70
2023-03-05T06:10:56.108Z,5.57
2023-03-05T06:13:24.153Z,6.73
2023-03-05T06:16:03.654Z,5.97
2023-03-05T06:18:34.224Z,5.73
2023-03-05T06:21:05.366Z,6.93
2023-03-05T06:23:34.026Z,5.20
2023-03-05T06:26:04.356Z,6.13
2023-03-05T06:28:32.667Z,6.13
2023-03-05T06:31:02.414Z,5.87
2023-03-05T06:33:33.119Z,5.90
2023-03-05T06:36:03.414Z,5.17
2023-03-05T06:38:31.597Z,6.87
2023-03-05T06:41:02.833Z,6.20
2023-03-05T06:43:33.241Z,5.60
2023-03-05T06:46:05.841Z,6.53
2023-03-05T06:48:35.794Z,6.73
2023-03-05T06:51:04.421Z,5.90
2023-03-05T06:53:32.844Z,6.57
2023-03-05T06:56:05.922Z,6.47
2023-03-05T06:58:34.027Z,6.17
2023-03-05T07:01:02.291Z,5.77
2023-03-05T07:03:30.624Z,6.33
2023-03-05T07:06:00.041Z,6.33
2023-03-05T07:08:33.180Z,6.07
2023-03-05T07:11:01.624Z,6.07
2023-03-05T07:13:30.035Z,6.67
2023-03-05T07:15:58.203Z,5.97
2023-03-05T07:18:26.272Z,5.87
2023-03-05T07:20:55.439Z,5.97
2023-03-05T07:23:27.006Z,6.07
2023-03-05T07:25:55.333Z,5.90
2023-03-05T07:28:23.527Z,6.43
2023-03-05T07:30:58.221Z,6.47
2023-03-05T07:33:26.493Z,6.13
2023-03-05T07:35:54.740Z,6.43
2023-03-05T07:38:24.678Z,6.27
2023-03-05T07:40:53.155Z,6.23
2023-03-05T07:43:21.242Z,5.90
2023-03-05T07:45:49.309Z,6.87
2023-03-05T07:48:20.962Z,6.87
2023-03-05T07:50:49.815Z,6.00
2023-03-05T07:53:18.049Z,7.37
2023-03-05T07:55:48.579Z,7.13
2023-03-05T07:58:16.617Z,7.07
2023-03-05T08:00:44.656Z,7.47
2023-03-05T08:03:15.687Z,7.90
2023-03-05T08:05:44.167Z,7.97
2023-03-05T08:08:12.358Z,7.30
2023-03-05T08:10:41.062Z,7.83
2023-03-05T08:13:10.499Z,7.77
2023-03-05T08:15:39.329Z,8.40
2023-03-05T08:18:07.509Z,7.20
2023-03-05T08:20:36.438Z,6.80
2023-03-05T08:23:04.868Z,5.97
2023-03-05T08:25:33.310Z,6.83
2023-03-05T08:28:01.358Z,7.43
2023-03-05T08:30:31.060Z,6.77
2023-03-05T08:32:59.160Z,6.87
2023-03-05T08:35:27.718Z,6.73
2023-03-05T08:37:57.380Z,9.60
2023-03-05T08:40:25.568Z,8.83
2023-03-05T08:42:53.627Z,6.57
2023-03-05T08:45:21.790Z,6.20
2023-03-05T08:47:51.364Z,6.43
2023-03-05T08:50:19.730Z,6.47
2023-03-05T08:52:47.759Z,6.23
2023-03-05T08:55:43.217Z,6.20
2023-03-05T08:58:12.221Z,6.90
2023-03-05T09:00:41.096Z,6.80
2023-03-05T09:03:11.169Z,6.70
2023-03-05T09:05:39.516Z,6.63
2023-03-05T09:08:07.656Z,6.63
2023-03-05T09:10:35.716Z,6.87
2023-03-05T09:13:04.314Z,7.07
2023-03-05T09:15:32.901Z,6.57
2023-03-05T09:18:01.287Z,6.93
2023-03-05T09:20:30.831Z,6.40
2023-03-05T09:22:59.246Z,6.37
2023-03-05T09:25:27.825Z,6.50
2023-03-05T09:27:56.041Z,6.23
2023-03-05T09:30:24.365Z,6.37
2023-03-05T09:32:52.570Z,6.13
2023-03-05T09:35:20.785Z,6.33
2023-03-05T09:37:50.281Z,6.53
2023-03-05T09:40:20.681Z,6.60
2023-03-05T09:43:03.611Z,6.27
2023-03-05T09:45:39.354Z,7.13
2023-03-05T09:48:17.905Z,7.27
2023-03-05T09:50:50.515Z,8.30
2023-03-05T09:56:32.829Z,7.17
2023-03-05T09:59:15.272Z,7.93
2023-03-05T10:01:44.978Z,7.30
2023-03-05T10:04:17.752Z,6.53
2023-03-05T10:06:54.301Z,6.93
2023-03-05T10:09:44.280Z,8.17
2023-03-05T10:12:25.251Z,7.83
2023-03-05T10:14:53.565Z,8.30
2023-03-05T10:17:45.818Z,7.27
2023-03-05T10:20:42.534Z,6.93
2023-03-05T10:23:31.182Z,6.67
2023-03-05T10:26:19.448Z,7.63
2023-03-05T10:28:58.689Z,7.30
2023-03-05T10:31:54.166Z,6.63
2023-03-05T10:34:57.988Z,7.20
2023-03-05T10:38:19.269Z,7.37
2023-03-05T10:40:52.089Z,6.30
2023-03-05T10:43:30.632Z,6.27
2023-03-05T10:45:59.739Z,6.73
2023-03-05T10:48:36.644Z,6.53
2023-03-05T10:51:14.445Z,6.63
2023-03-05T10:53:55.898Z,5.93
2023-03-05T10:56:26.534Z,6.83
2023-03-05T10:58:56.366Z,6.77
2023-03-05T11:01:28.093Z,6.50
2023-03-05T11:03:59.518Z,6.57
2023-03-05T11:06:38.737Z,6.93
2023-03-05T11:09:28.210Z,6.60
2023-03-05T11:12:17.025Z,7.47
2023-03-05T11:15:02.957Z,7.33
2023-03-05T11:17:34.330Z,7.40
2023-03-05T11:20:35.355Z,7.17
2023-03-05T11:23:06.841Z,7.70
2023-03-05T11:25:36.404Z,7.63
2023-03-05T11:28:05.180Z,7.63
2023-03-05T11:30:37.555Z,7.77
2023-03-05T11:33:11.355Z,8.20
2023-03-05T11:35:42.055Z,8.67
2023-03-05T11:38:20.367Z,8.37
2023-03-05T11:40:49.458Z,9.07
2023-03-05T11:43:21.127Z,8.70
2023-03-05T11:45:53.839Z,7.77
2023-03-05T11:48:28.245Z,9.87
2023-03-05T11:51:02.070Z,8.43
2023-03-05T11:53:33.162Z,9.60
2023-03-05T11:56:12.694Z,9.27
2023-03-05T11:58:47.442Z,9.87
2023-03-05T12:01:20.666Z,8.70
2023-03-05T12:03:50.269Z,8.70
2023-03-05T12:06:27.379Z,9.07
2023-03-05T12:08:58.933Z,7.67
2023-03-05T12:11:31.618Z,8.07
2023-03-05T12:14:12.867Z,7.87
2023-03-05T12:16:47.907Z,8.13
2023-03-05T12:19:38.752Z,7.57
2023-03-05T12:22:17.238Z,8.67
2023-03-05T12:24:45.482Z,8.70
2023-03-05T12:27:18.305Z,7.23
2023-03-05T12:29:50.467Z,8.17
2023-03-05T12:32:57.132Z,8.63
2023-03-05T12:35:35.918Z,7.93
2023-03-05T12:38:31.853Z,7.70
2023-03-05T12:41:39.500Z,7.83
2023-03-05T12:44:22.258Z,6.10
2023-03-05T12:47:23.412Z,6.83
2023-03-05T12:49:53.249Z,6.53
2023-03-05T12:52:28.113Z,6.80
2023-03-05T12:55:17.448Z,6.07
2023-03-05T12:57:48.450Z,6.00
2023-03-05T13:00:23.804Z,6.60
2023-03-05T13:02:58.004Z,6.27
2023-03-05T13:05:32.713Z,6.50
2023-03-05T13:08:23.980Z,6.13
2023-03-05T13:10:56.569Z,6.80
2023-03-05T13:13:26.587Z,7.00
2023-03-05T13:15:55.029Z,7.20
2023-03-05T13:18:26.854Z,7.30
2023-03-05T13:21:05.691Z,6.00
2023-03-05T13:23:35.350Z,7.43
2023-03-05T13:26:15.174Z,6.03
2023-03-05T13:28:45.386Z,6.93
2023-03-05T13:31:18.470Z,6.90
2023-03-05T13:33:56.817Z,6.53
2023-03-05T13:36:28.730Z,6.30
2023-03-05T13:38:57.112Z,7.60
2023-03-05T13:41:27.173Z,7.67
2023-03-05T13:43:58.164Z,7.13
2023-03-05T13:46:32.500Z,6.73
2023-03-05T13:49:20.344Z,6.43
2023-03-05T13:51:52.495Z,6.47
2023-03-05T13:54:22.397Z,7.03
2023-03-05T13:56:54.245Z,7.73
2023-03-05T13:59:25.032Z,7.47
2023-03-05T14:01:54.722Z,6.90
2023-03-05T14:04:26.648Z,7.33
2023-03-05T14:07:01.205Z,6.93
2023-03-05T14:09:32.176Z,7.07
2023-03-05T14:12:04.497Z,7.10
2023-03-05T14:14:38.031Z,8.03
2023-03-05T14:17:39.967Z,7.83
2023-03-05T14:20:23.579Z,7.67
2023-03-05T14:22:57.071Z,7.70
2023-03-05T14:25:38.392Z,10.03
2023-03-05T14:28:20.930Z,6.83
2023-03-05T14:30:52.567Z,8.40
2023-03-05T14:33:25.933Z,8.13
2023-03-05T14:35:54.488Z,7.93
2023-03-05T14:38:28.654Z,7.60
2023-03-05T14:40:57.304Z,7.33
2023-03-05T14:43:25.497Z,7.53
2023-03-05T14:45:53.852Z,6.87
2023-03-05T14:48:21.950Z,7.90
2023-03-05T14:50:57.218Z,7.77
2023-03-05T14:53:34.892Z,8.37
2023-03-05T14:56:03.320Z,7.87
2023-03-05T14:58:35.619Z,8.43
2023-03-05T15:01:04.264Z,8.37
2023-03-05T15:03:32.970Z,8.00
2023-03-05T15:06:01.133Z,7.73
2023-03-05T15:08:33.275Z,8.50
2023-03-05T15:11:02.253Z,7.73
2023-03-05T15:13:31.891Z,7.43
2023-03-05T15:16:00.358Z,7.93
2023-03-05T15:18:28.827Z,6.90
2023-03-05T15:20:58.083Z,9.27
2023-03-05T15:23:26.369Z,8.43
2023-03-05T15:25:55.923Z,6.97
2023-03-05T15:28:24.464Z,7.63
2023-03-05T15:30:52.659Z,7.40
2023-03-05T15:33:20.681Z,6.33
2023-03-05T15:35:48.766Z,7.80
2023-03-05T15:38:17.276Z,6.23
2023-03-05T15:40:47.023Z,6.87
2023-03-05T15:43:16.753Z,6.80
2023-03-05T15:45:44.992Z,6.70
2023-03-05T15:48:13.632Z,6.83
2023-03-05T15:50:43.352Z,7.57
2023-03-05T15:53:16.172Z,7.10
2023-03-05T15:55:45.822Z,6.60
2023-03-05T15:58:17.548Z,6.93
2023-03-05T16:00:47.546Z,6.83
2023-03-05T16:03:16.224Z,6.37
2023-03-05T16:05:44.486Z,6.93
2023-03-05T16:08:12.809Z,6.47
2023-03-05T16:10:41.885Z,6.83
2023-03-05T16:13:17.385Z,6.73
2023-03-05T16:15:53.183Z,8.73
2023-03-05T16:18:22.684Z,8.20
2023-03-05T16:20:51.229Z,8.40
2023-03-05T16:23:20.015Z,7.37
2023-03-05T16:25:48.480Z,8.03
2023-03-05T16:28:20.190Z,7.73
2023-03-05T16:30:55.284Z,8.00
2023-03-05T16:33:23.588Z,7.60
2023-03-05T16:35:57.442Z,7.93
2023-03-05T16:38:26.399Z,8.00
2023-03-05T16:41:07.844Z,7.57
2023-03-05T16:43:36.763Z,7.57
2023-03-05T16:46:06.583Z,8.10
2023-03-05T16:48:35.748Z,7.47
2023-03-05T16:51:05.781Z,7.70
2023-03-05T16:53:34.132Z,8.40
2023-03-05T16:56:05.482Z,6.80
2023-03-05T16:58:34.807Z,8.60
2023-03-05T17:01:03.860Z,8.80
2023-03-05T17:03:33.558Z,9.40
2023-03-05T17:06:01.765Z,10.50
2023-03-05T17:08:29.770Z,10.23
2023-03-05T17:10:57.985Z,10.43
2023-03-05T17:13:26.149Z,11.23
2023-03-05T17:15:56.954Z,11.47
2023-03-05T17:18:26.062Z,13.57
2023-03-05T17:20:55.708Z,12.77
2023-03-05T17:23:24.594Z,9.53
2023-03-05T17:25:52.784Z,8.73
2023-03-05T17:28:21.476Z,6.70
2023-03-05T17:30:49.848Z,8.37
2023-03-05T17:33:18.086Z,9.20
2023-03-05T17:35:47.799Z,9.73
2023-03-05T17:38:18.432Z,9.33
2023-03-05T17:40:46.711Z,11.03
2023-03-05T17:43:14.918Z,8.70
2023-03-05T17:45:43.869Z,9.60
2023-03-05T17:48:12.817Z,56.70
2023-03-05T17:50:41.902Z,44.80
2023-03-05T17:53:10.489Z,41.27
2023-03-05T17:55:43.653Z,50.03
2023-03-05T17:58:11.923Z,24.87
2023-03-05T18:00:40.201Z,14.33
2023-03-05T18:03:12.370Z,11.30
2023-03-05T18:05:40.938Z,13.37
2023-03-05T18:08:10.608Z,16.67
2023-03-05T18:10:40.106Z,15.43
2023-03-05T18:13:08.121Z,11.87
2023-03-05T18:15:37.236Z,9.27
2023-03-05T18:18:05.656Z,12.57
2023-03-05T18:20:37.262Z,9.43
2023-03-05T18:23:06.591Z,8.47
2023-03-05T18:25:35.325Z,9.30
2023-03-05T18:28:08.519Z,10.20
2023-03-05T18:30:37.806Z,8.47
2023-03-05T18:33:06.244Z,8.73
2023-03-05T18:35:35.221Z,8.97
2023-03-05T18:38:03.546Z,8.30
2023-03-05T18:40:35.801Z,7.87
2023-03-05T18:43:05.416Z,7.53
2023-03-05T18:45:34.329Z,9.63
2023-03-05T18:48:02.502Z,12.00
2023-03-05T18:50:31.500Z,9.77
2023-03-05T18:52:59.659Z,8.60
2023-03-05T18:55:30.517Z,7.83
2023-03-05T18:57:59.042Z,8.33
2023-03-05T19:00:31.691Z,6.83
2023-03-05T19:02:59.946Z,7.67
2023-03-05T19:05:29.196Z,7.77
2023-03-05T19:07:57.512Z,7.40
2023-03-05T19:10:26.592Z,6.80
2023-03-05T19:13:05.534Z,7.30
2023-03-05T19:15:35.265Z,7.60
2023-03-05T19:18:03.286Z,6.97
2023-03-05T19:20:31.399Z,7.27
2023-03-05T19:22:59.427Z,7.23
2023-03-05T19:25:27.495Z,7.30
2023-03-05T19:27:55.992Z,8.17
2023-03-05T19:30:24.291Z,7.53
2023-03-05T19:32:53.854Z,6.83
2023-03-05T19:35:22.209Z,6.67
2023-03-05T19:37:50.413Z,6.70
2023-03-05T19:40:19.203Z,7.03
2023-03-05T19:42:47.271Z,7.17
2023-03-05T19:45:15.636Z,6.90
2023-03-05T19:47:43.689Z,6.93
2023-03-05T19:50:16.223Z,7.53
2023-03-05T19:52:44.470Z,6.37
2023-03-05T19:55:13.204Z,6.97
2023-03-05T19:57:41.335Z,6.50
2023-03-05T20:00:14.600Z,6.60
2023-03-05T20:02:42.644Z,6.40
2023-03-05T20:05:11.276Z,5.73
2023-03-05T20:07:40.665Z,7.00
2023-03-05T20:10:10.759Z,6.23
2023-03-05T20:12:39.197Z,5.40
2023-03-05T20:15:08.579Z,6.87
2023-03-05T20:17:36.687Z,7.03
2023-03-05T20:20:07.365Z,10.43
2023-03-05T20:22:35.542Z,9.03
2023-03-05T20:25:06.769Z,8.00
2023-03-05T20:27:35.270Z,7.37
2023-03-05T20:30:03.295Z,6.43
2023-03-05T20:32:31.790Z,7.03
2023-03-05T20:34:59.913Z,7.27
2023-03-05T20:37:39.890Z,6.87
2023-03-05T20:40:11.740Z,8.43
2023-03-05T20:42:40.014Z,7.77
2023-03-05T20:45:09.744Z,7.63
2023-03-05T20:47:40.826Z,7.60
2023-03-05T20:50:10.925Z,7.90
2023-03-05T20:52:39.986Z,6.97
2023-03-05T20:55:10.743Z,6.80
2023-03-05T20:57:39.245Z,7.20
2023-03-05T21:00:09.481Z,7.17
2023-03-05T21:02:37.698Z,7.07
2023-03-05T21:05:07.430Z,5.90
2023-03-05T21:07:35.963Z,7.07
2023-03-05T21:10:05.803Z,7.83
2023-03-05T21:12:35.640Z,6.60
2023-03-05T21:15:03.835Z,6.00
2023-03-05T21:17:31.854Z,7.17
2023-03-05T21:20:00.232Z,7.27
2023-03-05T21:22:28.486Z,6.83
2023-03-05T21:25:03.347Z,6.83
2023-03-05T21:27:31.485Z,6.57
2023-03-05T21:30:01.195Z,7.23
2023-03-05T21:32:29.700Z,6.37
2023-03-05T21:34:59.391Z,5.87
2023-03-05T21:37:28.615Z,6.77
2023-03-05T21:39:56.664Z,6.87
2023-03-05T21:42:25.073Z,6.47
2023-03-05T21:44:55.009Z,6.80
2023-03-05T21:47:24.455Z,6.87
2023-03-05T21:49:52.911Z,6.90
2023-03-05T21:52:22.323Z,6.97
2023-03-05T21:54:50.327Z,6.70
2023-03-05T21:57:18.617Z,6.90
2023-03-05T21:59:46.724Z,6.37
2023-03-05T22:02:16.808Z,6.67
2023-03-05T22:04:47.374Z,7.83
2023-03-05T22:07:17.096Z,6.37
2023-03-05T22:09:45.473Z,7.67
2023-03-05T22:12:20.139Z,6.93
2023-03-05T22:14:48.317Z,6.90
2023-03-05T22:17:16.390Z,7.13
2023-03-05T22:19:45.717Z,6.50
2023-03-05T22:22:13.901Z,6.67
2023-03-05T22:24:41.973Z,6.80
2023-03-05T22:27:10.529Z,7.37
2023-03-05T22:29:38.932Z,8.07
2023-03-05T22:32:07.565Z,7.67
2023-03-05T22:34:37.502Z,7.40
2023-03-05T22:37:07.091Z,7.60
2023-03-05T22:39:35.321Z,7.80
2023-03-05T22:42:03.373Z,8.00
2023-03-05T22:44:31.497Z,7.27
2023-03-05T22:46:59.593Z,7.70
2023-03-05T22:49:27.889Z,6.13
2023-03-05T22:51:55.936Z,6.77
2023-03-05T22:54:25.501Z,7.57
2023-03-05T22:56:53.764Z,8.03
2023-03-05T22:59:21.876Z,7.90
2023-03-05T23:01:50.095Z,7.27
2023-03-05T23:04:28.988Z,8.23
2023-03-05T23:06:57.295Z,7.67
2023-03-05T23:09:27.151Z,8.03
2023-03-05T23:11:55.429Z,7.33
2023-03-05T23:14:23.632Z,7.27
2023-03-05T23:16:51.832Z,7.03
2023-03-05T23:19:20.146Z,6.53
2023-03-05T23:21:48.417Z,6.53
2023-03-05T23:24:16.724Z,6.60
2023-03-05T23:26:46.608Z,6.53
2023-03-05T23:29:15.229Z,6.10
2023-03-05T23:31:43.688Z,7.47
2023-03-05T23:34:11.867Z,6.70
2023-03-05T23:36:40.585Z,6.47
2023-03-05T23:39:08.792Z,6.30
2023-03-05T23:41:37.433Z,6.23
2023-03-05T23:44:07.268Z,6.23
2023-03-05T23:46:35.626Z,7.33
2023-03-05T23:49:03.916Z,6.57
2023-03-05T23:51:32.138Z,6.30
2023-03-05T23:54:00.596Z,4.97
2023-03-05T23:56:29.016Z,5.57
2023-03-05T23:59:00.515Z,6.33
